createdAt,value
2022-10-15T00:02:01.053Z,100571.56
2022-10-15T00:07:03.518Z,100571.13
2022-10-15T00:12:06.319Z,100552.66
2022-10-15T00:17:08.939Z,100581.94
2022-10-15T00:22:11.336Z,100567.59
2022-10-15T00:27:13.529Z,100573.44
2022-10-15T00:32:16.363Z,100554.56
2022-10-15T00:37:18.931Z,100562.84
2022-10-15T00:42:21.367Z,100553.09
2022-10-15T00:47:35.247Z,100547.28
2022-10-15T00:52:48.918Z,100554.75
2022-10-15T00:57:51.890Z,100552.47
2022-10-15T01:02:54.150Z,100549.56
2022-10-15T01:07:56.428Z,100526.13
2022-10-15T01:13:33.340Z,100556.41
2022-10-15T01:18:46.407Z,100557.44
2022-10-15T01:24:27.093Z,100572.78
2022-10-15T01:29:46.866Z,100568.03
2022-10-15T01:34:51.916Z,100564.09
2022-10-15T01:40:17.981Z,100547.31
2022-10-15T01:45:30.131Z,100537.53
2022-10-15T01:50:35.443Z,100546.28
2022-10-15T01:55:41.851Z,100551.88
2022-10-15T02:00:44.588Z,100538.38
2022-10-15T02:05:56.284Z,100547.53
2022-10-15T02:11:21.371Z,100541.09
2022-10-15T02:16:47.478Z,100537.34
2022-10-15T02:21:59.908Z,100554.78
2022-10-15T02:27:05.062Z,100559.75
2022-10-15T02:32:09.487Z,100558.09
2022-10-15T02:37:12.766Z,100533.84
2022-10-15T02:42:18.213Z,100561.00
2022-10-15T02:47:20.559Z,100553.31
2022-10-15T02:52:23.088Z,100576.34
2022-10-15T02:57:25.872Z,100597.13
2022-10-15T03:02:28.494Z,100589.84
2022-10-15T03:07:31.086Z,100590.28
2022-10-15T03:12:33.910Z,100617.84
2022-10-15T03:17:36.149Z,100615.16
2022-10-15T03:22:38.797Z,100607.91
2022-10-15T03:27:41.398Z,100626.16
2022-10-15T03:32:44.379Z,100612.91
2022-10-15T03:37:46.738Z,100576.56
2022-10-15T03:42:53.023Z,100626.59
2022-10-15T03:47:56.223Z,100603.56
2022-10-15T03:52:58.675Z,100626.59
2022-10-15T03:58:01.242Z,100624.94
2022-10-15T04:03:03.874Z,100616.22
2022-10-15T04:08:06.470Z,100605.41
2022-10-15T04:13:08.755Z,100606.66
2022-10-15T04:18:11.719Z,100602.91
2022-10-15T04:23:13.991Z,100610.19
2022-10-15T04:28:16.452Z,100596.91
2022-10-15T04:33:18.737Z,100591.72
2022-10-15T04:38:21.156Z,100606.47
2022-10-15T04:43:23.402Z,100614.75
2022-10-15T04:48:26.447Z,100601.25
2022-10-15T04:53:28.764Z,100608.13
2022-10-15T04:58:35.949Z,100587.78
2022-10-15T05:03:41.077Z,100618.69
2022-10-15T05:08:47.506Z,100588.59
2022-10-15T05:13:50.618Z,100630.09
2022-10-15T05:18:56.696Z,100592.28
2022-10-15T05:24:00.016Z,100632.78
2022-10-15T05:29:02.515Z,100631.72
2022-10-15T05:34:09.523Z,100631.69
2022-10-15T05:39:12.763Z,100643.53
2022-10-15T05:44:15.014Z,100650.38
2022-10-15T05:49:19.514Z,100655.59
2022-10-15T05:54:21.657Z,100663.69
2022-10-15T05:59:23.865Z,100657.69
2022-10-15T06:04:26.284Z,100669.06
2022-10-15T06:09:28.834Z,100671.19
2022-10-15T06:14:31.728Z,100685.28
2022-10-15T06:19:34.031Z,100687.13
2022-10-15T06:24:36.352Z,100695.03
2022-10-15T06:29:38.510Z,100714.16
2022-10-15T06:34:40.835Z,100702.75
2022-10-15T06:39:43.094Z,100705.66
2022-10-15T06:44:45.285Z,100701.09
2022-10-15T06:49:47.594Z,100703.59
2022-10-15T06:54:50.136Z,100714.41
2022-10-15T06:59:52.889Z,100689.47
2022-10-15T07:04:55.120Z,100697.78
2022-10-15T07:09:57.435Z,100737.94
2022-10-15T07:14:59.785Z,100733.78
2022-10-15T07:20:02.129Z,100718.00
2022-10-15T07:25:04.547Z,100731.28
2022-10-15T07:30:08.694Z,100724.63
2022-10-15T07:35:11.181Z,100746.63
2022-10-15T07:40:13.614Z,100736.69
2022-10-15T07:45:16.092Z,100746.03
2022-10-15T07:50:19.736Z,100743.31
2022-10-15T07:55:22.369Z,100765.31
2022-10-15T08:00:25.138Z,100751.19
2022-10-15T08:05:27.554Z,100762.63
2022-10-15T08:10:29.994Z,100753.25
2022-10-15T08:15:33.675Z,100762.38
2022-10-15T08:20:36.851Z,100755.91
2022-10-15T08:25:39.134Z,100751.09
2022-10-15T08:30:41.573Z,100755.44
2022-10-15T08:35:44.623Z,100749.53
2022-10-15T08:40:52.923Z,100765.00
2022-10-15T08:46:00.584Z,100760.16
2022-10-15T08:51:18.878Z,100760.72
2022-10-15T08:56:44.073Z,100772.09
2022-10-15T09:01:46.272Z,100779.72
2022-10-15T09:06:55.004Z,100738.25
2022-10-15T09:12:20.235Z,100783.50
2022-10-15T09:17:26.513Z,100777.88
2022-10-15T09:22:31.599Z,100764.22
2022-10-15T09:27:36.254Z,100784.97
2022-10-15T09:33:04.728Z,100760.66
2022-10-15T09:38:36.253Z,100784.75
2022-10-15T09:43:41.388Z,100788.91
2022-10-15T09:49:21.585Z,100789.50
2022-10-15T09:54:28.130Z,100772.97
2022-10-15T10:04:40.009Z,100791.03
2022-10-15T10:09:54.546Z,100792.72
2022-10-15T10:15:03.867Z,100784.88
2022-10-15T10:20:18.187Z,100792.63
2022-10-15T10:25:42.872Z,100791.56
2022-10-15T10:30:57.065Z,100800.31
2022-10-15T10:36:00.640Z,100792.19
2022-10-15T10:41:11.052Z,100781.38
2022-10-15T10:46:16.367Z,100790.28
2022-10-15T10:51:27.427Z,100775.84
2022-10-15T10:56:38.185Z,100766.66
2022-10-15T11:01:40.639Z,100775.13
2022-10-15T11:07:04.127Z,100781.91
2022-10-15T11:12:38.474Z,100782.97
2022-10-15T11:18:05.221Z,100786.44
2022-10-15T11:23:25.097Z,100778.66
2022-10-15T11:28:52.180Z,100769.81
2022-10-15T11:34:22.605Z,100760.06
2022-10-15T11:39:34.094Z,100757.31
2022-10-15T11:45:04.179Z,100764.59
2022-10-15T11:50:30.905Z,100757.25
2022-10-15T11:55:58.601Z,100745.44
2022-10-15T12:01:27.577Z,100753.16
2022-10-15T12:06:37.778Z,100749.13
2022-10-15T12:11:43.279Z,100762.69
2022-10-15T12:17:00.677Z,100771.72
2022-10-15T12:22:12.252Z,100766.03
2022-10-15T12:27:30.642Z,100768.25
2022-10-15T12:32:46.988Z,100761.19
2022-10-15T12:37:50.707Z,100757.50
2022-10-15T12:43:00.361Z,100763.91
2022-10-15T12:48:05.262Z,100773.56
2022-10-15T12:53:26.402Z,100771.75
2022-10-15T12:58:33.447Z,100774.94
2022-10-15T13:03:40.340Z,100764.16
2022-10-15T13:08:50.064Z,100771.31
2022-10-15T13:13:58.273Z,100773.81
2022-10-15T13:19:01.011Z,100749.50
2022-10-15T13:24:03.274Z,100764.06
2022-10-15T13:29:05.483Z,100767.16
2022-10-15T13:34:16.726Z,100746.97
2022-10-15T13:39:26.477Z,100745.06
2022-10-15T13:44:29.328Z,100763.53
2022-10-15T13:49:31.672Z,100775.34
2022-10-15T13:54:34.035Z,100774.50
2022-10-15T13:59:36.273Z,100767.75
2022-10-15T14:04:38.832Z,100779.50
2022-10-15T14:09:42.728Z,100781.84
2022-10-15T14:14:49.916Z,100783.94
2022-10-15T14:20:26.891Z,100773.56
2022-10-15T14:25:27.140Z,100781.91
2022-10-15T14:30:33.731Z,100789.59
2022-10-15T14:35:37.864Z,100782.28
2022-10-15T14:40:40.136Z,100779.06
2022-10-15T14:45:53.765Z,100779.44
2022-10-15T14:51:00.417Z,100781.59
2022-10-15T14:56:07.664Z,100763.81
2022-10-15T15:01:16.544Z,100777.00
2022-10-15T15:06:19.294Z,100747.97
2022-10-15T15:11:25.850Z,100785.66
2022-10-15T15:16:28.449Z,100777.28
2022-10-15T15:21:30.627Z,100806.31
2022-10-15T15:26:33.330Z,100786.25
2022-10-15T15:31:35.724Z,100795.81
2022-10-15T15:36:37.901Z,100789.44
2022-10-15T15:41:40.089Z,100823.13
2022-10-15T15:46:42.970Z,100814.75
2022-10-15T15:51:45.339Z,100838.91
2022-10-15T15:56:47.666Z,100854.50
2022-10-15T16:01:50.347Z,100856.63
2022-10-15T16:06:52.978Z,100859.94
2022-10-15T16:11:57.170Z,100857.69
2022-10-15T16:16:59.828Z,100852.13
2022-10-15T16:22:02.337Z,100864.19
2022-10-15T16:27:04.615Z,100884.81
2022-10-15T16:32:06.975Z,100898.78
2022-10-15T16:37:09.382Z,100902.78
2022-10-15T16:42:14.258Z,100902.63
2022-10-15T16:47:16.843Z,100897.06
2022-10-15T16:52:19.102Z,100913.28
2022-10-15T16:57:21.306Z,100915.59
2022-10-15T17:02:23.849Z,100922.06
2022-10-15T17:07:26.920Z,100920.84
2022-10-15T17:12:29.514Z,100927.91
2022-10-15T17:17:32.046Z,100931.25
2022-10-15T17:22:35.582Z,100922.50
2022-10-15T17:27:38.077Z,100924.56
2022-10-15T17:32:40.372Z,100932.91
2022-10-15T17:37:42.719Z,100924.13
2022-10-15T17:42:45.066Z,100931.41
2022-10-15T17:47:57.542Z,100959.88
2022-10-15T17:53:01.969Z,100977.97
2022-10-15T17:58:04.545Z,100963.34
2022-10-15T18:03:06.748Z,100979.16
2022-10-15T18:08:10.560Z,100983.91
2022-10-15T18:13:14.272Z,100973.66
2022-10-15T18:18:18.221Z,100987.16
2022-10-15T18:23:21.535Z,100979.66
2022-10-15T18:28:23.938Z,100970.00
2022-10-15T18:33:27.028Z,100983.47
2022-10-15T18:38:30.002Z,100993.44
2022-10-15T18:43:32.387Z,100992.72
2022-10-15T18:48:34.747Z,101005.56
2022-10-15T18:53:38.624Z,101018.41
2022-10-15T18:58:45.138Z,101011.19
2022-10-15T19:03:50.424Z,101022.59
2022-10-15T19:08:52.937Z,101010.63
2022-10-15T19:13:58.190Z,101001.69
2022-10-15T19:19:00.972Z,101042.69
2022-10-15T19:24:04.031Z,101038.66
2022-10-15T19:29:06.934Z,101033.25
2022-10-15T19:34:09.798Z,101052.41
2022-10-15T19:39:15.208Z,101028.34
2022-10-15T19:44:25.779Z,101058.53
2022-10-15T19:49:28.569Z,101058.84
2022-10-15T19:54:30.985Z,101055.09
2022-10-15T19:59:33.244Z,101024.13
2022-10-15T20:04:35.665Z,101076.31
2022-10-15T20:09:38.088Z,101062.19
2022-10-15T20:14:40.469Z,101066.94
2022-10-15T20:19:42.797Z,101086.31
2022-10-15T20:24:45.541Z,101075.28
2022-10-15T20:29:47.771Z,101067.66
2022-10-15T20:34:50.020Z,101053.66
2022-10-15T20:39:52.283Z,101085.88
2022-10-15T20:44:54.754Z,101093.78
2022-10-15T20:49:57.186Z,101095.00
2022-10-15T20:54:59.633Z,101090.78
2022-10-15T21:00:01.906Z,101109.09
2022-10-15T21:05:04.457Z,101106.69
2022-10-15T21:10:07.260Z,101123.81
2022-10-15T21:15:09.994Z,101115.66
2022-10-15T21:20:12.425Z,101104.69
2022-10-15T21:25:15.103Z,101117.78
2022-10-15T21:30:17.822Z,101121.16
2022-10-15T21:35:20.199Z,101133.72
2022-10-15T21:40:22.407Z,101137.88
2022-10-15T21:45:25.283Z,101135.19
2022-10-15T21:50:27.515Z,101127.66
2022-10-15T21:55:30.618Z,101128.03
2022-10-15T22:00:33.189Z,101139.09
2022-10-15T22:05:35.663Z,101092.09
2022-10-15T22:10:38.100Z,101128.81
2022-10-15T22:15:40.616Z,101119.50
2022-10-15T22:20:42.880Z,101117.00
2022-10-15T22:25:46.286Z,101111.72
2022-10-15T22:30:48.651Z,101119.38
2022-10-15T22:35:50.862Z,101112.28
2022-10-15T22:40:57.032Z,101121.53
2022-10-15T22:46:00.855Z,101101.75
2022-10-15T22:51:05.234Z,101123.75
2022-10-15T22:56:12.695Z,101124.06
2022-10-15T23:01:18.388Z,101123.88
2022-10-15T23:06:22.060Z,101119.38
2022-10-15T23:11:27.843Z,101129.50
2022-10-15T23:16:32.889Z,101133.31
2022-10-15T23:21:38.965Z,101132.91
2022-10-15T23:26:42.312Z,101135.97
2022-10-15T23:31:44.641Z,101124.63
2022-10-15T23:36:47.449Z,101139.78
2022-10-15T23:41:50.399Z,101145.25
2022-10-15T23:46:52.983Z,101134.75
2022-10-15T23:51:55.275Z,101134.13
2022-10-15T23:56:57.802Z,101131.16
